sensor_id;sensor_type;location;lat;lon;timestamp;P1;durP1;ratioP1;P2;durP2;ratioP2
26718;SDS011;14326;50.794;6.060;2023-04-06T00:01:06;33.80;;;12.75;;
26718;SDS011;14326;50.794;6.060;2023-04-06T00:03:43;28.55;;;11.02;;
26718;SDS011;14326;50.794;6.060;2023-04-06T00:06:11;26.27;;;11.30;;
26718;SDS011;14326;50.794;6.060;2023-04-06T00:08:38;26.33;;;11.60;;
26718;SDS011;14326;50.794;6.060;2023-04-06T00:11:05;31.48;;;11.88;;
26718;SDS011;14326;50.794;6.060;2023-04-06T00:13:32;29.98;;;12.40;;
26718;SDS011;14326;50.794;6.060;2023-04-06T00:15:59;27.88;;;11.40;;
26718;SDS011;14326;50.794;6.060;2023-04-06T00:18:25;30.20;;;11.93;;
26718;SDS011;14326;50.794;6.060;2023-04-06T00:20:52;31.08;;;12.23;;
26718;SDS011;14326;50.794;6.060;2023-04-06T00:23:20;29.63;;;11.15;;
26718;SDS011;14326;50.794;6.060;2023-04-06T00:25:47;29.58;;;12.30;;
26718;SDS011;14326;50.794;6.060;2023-04-06T00:28:14;28.75;;;10.82;;
26718;SDS011;14326;50.794;6.060;2023-04-06T00:30:42;27.75;;;12.43;;
26718;SDS011;14326;50.794;6.060;2023-04-06T00:33:11;30.35;;;11.60;;
26718;SDS011;14326;50.794;6.060;2023-04-06T00:35:38;29.10;;;12.20;;
26718;SDS011;14326;50.794;6.060;2023-04-06T00:38:05;29.10;;;12.43;;
26718;SDS011;14326;50.794;6.060;2023-04-06T00:40:33;30.95;;;11.30;;
26718;SDS011;14326;50.794;6.060;2023-04-06T00:43:00;32.15;;;11.68;;
26718;SDS011;14326;50.794;6.060;2023-04-06T00:45:27;32.92;;;11.95;;
26718;SDS011;14326;50.794;6.060;2023-04-06T00:47:54;31.23;;;11.40;;
26718;SDS011;14326;50.794;6.060;2023-04-06T00:50:31;29.80;;;12.23;;
26718;SDS011;14326;50.794;6.060;2023-04-06T00:53:18;28.38;;;12.25;;
26718;SDS011;14326;50.794;6.060;2023-04-06T00:55:50;28.23;;;11.45;;
26718;SDS011;14326;50.794;6.060;2023-04-06T00:58:17;31.25;;;12.05;;
26718;SDS011;14326;50.794;6.060;2023-04-06T01:00:51;29.50;;;11.32;;
26718;SDS011;14326;50.794;6.060;2023-04-06T01:06:44;30.63;;;11.52;;
26718;SDS011;14326;50.794;6.060;2023-04-06T01:12:20;32.33;;;11.82;;
26718;SDS011;14326;50.794;6.060;2023-04-06T01:14:47;29.77;;;11.45;;
26718;SDS011;14326;50.794;6.060;2023-04-06T01:17:16;33.15;;;12.48;;
26718;SDS011;14326;50.794;6.060;2023-04-06T01:20:15;28.48;;;10.57;;
26718;SDS011;14326;50.794;6.060;2023-04-06T01:28:34;30.02;;;12.02;;
26718;SDS011;14326;50.794;6.060;2023-04-06T01:31:10;32.13;;;12.80;;
26718;SDS011;14326;50.794;6.060;2023-04-06T01:33:37;31.10;;;12.43;;
26718;SDS011;14326;50.794;6.060;2023-04-06T01:36:09;29.27;;;11.93;;
26718;SDS011;14326;50.794;6.060;2023-04-06T01:38:48;28.42;;;11.23;;
26718;SDS011;14326;50.794;6.060;2023-04-06T01:43:44;33.20;;;11.55;;
26718;SDS011;14326;50.794;6.060;2023-04-06T01:46:16;29.52;;;11.90;;
26718;SDS011;14326;50.794;6.060;2023-04-06T01:49:05;32.38;;;12.90;;
26718;SDS011;14326;50.794;6.060;2023-04-06T01:51:44;30.97;;;12.70;;
26718;SDS011;14326;50.794;6.060;2023-04-06T01:54:33;30.75;;;11.07;;
26718;SDS011;14326;50.794;6.060;2023-04-06T01:57:11;28.58;;;12.15;;
26718;SDS011;14326;50.794;6.060;2023-04-06T02:03:12;29.40;;;10.80;;
26718;SDS011;14326;50.794;6.060;2023-04-06T02:06:27;28.70;;;11.48;;
26718;SDS011;14326;50.794;6.060;2023-04-06T02:09:01;28.13;;;11.90;;
26718;SDS011;14326;50.794;6.060;2023-04-06T02:11:52;24.35;;;10.82;;
26718;SDS011;14326;50.794;6.060;2023-04-06T02:14:27;29.88;;;12.23;;
26718;SDS011;14326;50.794;6.060;2023-04-06T02:17:02;28.02;;;11.75;;
26718;SDS011;14326;50.794;6.060;2023-04-06T02:20:00;30.13;;;12.18;;
26718;SDS011;14326;50.794;6.060;2023-04-06T02:22:58;32.85;;;10.77;;
26718;SDS011;14326;50.794;6.060;2023-04-06T02:25:49;29.95;;;11.65;;
26718;SDS011;14326;50.794;6.060;2023-04-06T02:28:24;31.77;;;11.20;;
26718;SDS011;14326;50.794;6.060;2023-04-06T02:31:07;33.90;;;11.93;;
26718;SDS011;14326;50.794;6.060;2023-04-06T02:34:00;29.38;;;10.65;;
26718;SDS011;14326;50.794;6.060;2023-04-06T02:36:47;27.05;;;10.13;;
26718;SDS011;14326;50.794;6.060;2023-04-06T02:39:49;22.85;;;8.50;;
26718;SDS011;14326;50.794;6.060;2023-04-06T02:42:31;31.90;;;10.82;;
26718;SDS011;14326;50.794;6.060;2023-04-06T02:44:59;29.80;;;11.30;;
26718;SDS011;14326;50.794;6.060;2023-04-06T02:47:28;27.25;;;10.77;;
26718;SDS011;14326;50.794;6.060;2023-04-06T02:50:12;29.17;;;11.57;;
26718;SDS011;14326;50.794;6.060;2023-04-06T02:52:44;22.00;;;8.95;;
26718;SDS011;14326;50.794;6.060;2023-04-06T02:55:29;29.52;;;11.30;;
26718;SDS011;14326;50.794;6.060;2023-04-06T03:01:08;30.27;;;11.32;;
26718;SDS011;14326;50.794;6.060;2023-04-06T03:04:00;33.28;;;11.85;;
26718;SDS011;14326;50.794;6.060;2023-04-06T03:06:43;32.60;;;10.85;;
26718;SDS011;14326;50.794;6.060;2023-04-06T03:09:41;28.50;;;10.50;;
26718;SDS011;14326;50.794;6.060;2023-04-06T03:12:24;28.92;;;11.13;;
26718;SDS011;14326;50.794;6.060;2023-04-06T03:15:13;26.40;;;10.25;;
26718;SDS011;14326;50.794;6.060;2023-04-06T03:17:56;25.17;;;9.65;;
26718;SDS011;14326;50.794;6.060;2023-04-06T03:20:25;36.03;;;11.10;;
26718;SDS011;14326;50.794;6.060;2023-04-06T03:22:54;29.25;;;11.02;;
26718;SDS011;14326;50.794;6.060;2023-04-06T03:25:43;28.88;;;10.00;;
26718;SDS011;14326;50.794;6.060;2023-04-06T03:28:34;27.48;;;11.75;;
26718;SDS011;14326;50.794;6.060;2023-04-06T03:31:22;24.83;;;9.75;;
26718;SDS011;14326;50.794;6.060;2023-04-06T03:34:02;29.33;;;10.60;;
26718;SDS011;14326;50.794;6.060;2023-04-06T03:39:17;27.63;;;10.98;;
26718;SDS011;14326;50.794;6.060;2023-04-06T03:41:46;25.40;;;8.93;;
26718;SDS011;14326;50.794;6.060;2023-04-06T03:44:18;26.45;;;10.98;;
26718;SDS011;14326;50.794;6.060;2023-04-06T03:47:15;26.35;;;10.70;;
26718;SDS011;14326;50.794;6.060;2023-04-06T03:50:01;32.35;;;11.50;;
26718;SDS011;14326;50.794;6.060;2023-04-06T03:52:39;32.15;;;11.65;;
26718;SDS011;14326;50.794;6.060;2023-04-06T04:01:30;29.45;;;11.48;;
26718;SDS011;14326;50.794;6.060;2023-04-06T04:04:05;28.60;;;11.60;;
26718;SDS011;14326;50.794;6.060;2023-04-06T04:07:07;29.08;;;11.20;;
26718;SDS011;14326;50.794;6.060;2023-04-06T04:09:59;29.75;;;11.50;;
26718;SDS011;14326;50.794;6.060;2023-04-06T04:12:34;29.90;;;10.73;;
26718;SDS011;14326;50.794;6.060;2023-04-06T04:15:08;34.33;;;12.93;;
26718;SDS011;14326;50.794;6.060;2023-04-06T04:17:38;31.05;;;11.77;;
26718;SDS011;14326;50.794;6.060;2023-04-06T04:20:05;29.55;;;11.98;;
26718;SDS011;14326;50.794;6.060;2023-04-06T04:22:40;28.27;;;11.93;;
26718;SDS011;14326;50.794;6.060;2023-04-06T04:25:14;28.75;;;11.77;;
26718;SDS011;14326;50.794;6.060;2023-04-06T04:27:47;30.70;;;12.23;;
26718;SDS011;14326;50.794;6.060;2023-04-06T04:30:14;30.27;;;12.77;;
26718;SDS011;14326;50.794;6.060;2023-04-06T04:32:41;31.05;;;12.60;;
26718;SDS011;14326;50.794;6.060;2023-04-06T04:38:24;30.13;;;12.27;;
26718;SDS011;14326;50.794;6.060;2023-04-06T04:41:02;32.35;;;12.52;;
26718;SDS011;14326;50.794;6.060;2023-04-06T04:43:37;28.60;;;11.27;;
26718;SDS011;14326;50.794;6.060;2023-04-06T04:46:05;27.60;;;11.40;;
26718;SDS011;14326;50.794;6.060;2023-04-06T04:48:37;29.95;;;12.55;;
26718;SDS011;14326;50.794;6.060;2023-04-06T04:51:28;26.67;;;11.10;;
26718;SDS011;14326;50.794;6.060;2023-04-06T04:54:00;34.33;;;12.40;;
26718;SDS011;14326;50.794;6.060;2023-04-06T04:56:34;28.02;;;11.15;;
26718;SDS011;14326;50.794;6.060;2023-04-06T04:59:03;25.83;;;10.93;;
26718;SDS011;14326;50.794;6.060;2023-04-06T05:01:35;28.98;;;11.38;;
26718;SDS011;14326;50.794;6.060;2023-04-06T05:04:10;26.70;;;9.75;;
26718;SDS011;14326;50.794;6.060;2023-04-06T05:06:44;30.05;;;11.90;;
26718;SDS011;14326;50.794;6.060;2023-04-06T05:09:13;30.75;;;12.02;;
26718;SDS011;14326;50.794;6.060;2023-04-06T05:14:43;28.75;;;12.20;;
26718;SDS011;14326;50.794;6.060;2023-04-06T05:20:22;29.92;;;11.75;;
26718;SDS011;14326;50.794;6.060;2023-04-06T05:23:07;26.63;;;11.05;;
26718;SDS011;14326;50.794;6.060;2023-04-06T05:28:31;31.95;;;12.80;;
26718;SDS011;14326;50.794;6.060;2023-04-06T05:31:02;32.25;;;11.65;;
26718;SDS011;14326;50.794;6.060;2023-04-06T05:33:47;32.10;;;12.47;;
26718;SDS011;14326;50.794;6.060;2023-04-06T05:36:23;32.45;;;12.43;;
26718;SDS011;14326;50.794;6.060;2023-04-06T05:39:07;33.22;;;12.63;;
26718;SDS011;14326;50.794;6.060;2023-04-06T05:44:46;31.58;;;11.77;;
26718;SDS011;14326;50.794;6.060;2023-04-06T05:47:13;32.03;;;11.80;;
26718;SDS011;14326;50.794;6.060;2023-04-06T05:49:43;26.48;;;11.60;;
26718;SDS011;14326;50.794;6.060;2023-04-06T05:52:10;28.65;;;11.75;;
26718;SDS011;14326;50.794;6.060;2023-04-06T05:54:37;29.65;;;11.85;;
26718;SDS011;14326;50.794;6.060;2023-04-06T05:57:11;31.50;;;11.75;;
26718;SDS011;14326;50.794;6.060;2023-04-06T05:59:49;30.65;;;10.85;;
26718;SDS011;14326;50.794;6.060;2023-04-06T06:02:24;29.40;;;11.45;;
26718;SDS011;14326;50.794;6.060;2023-04-06T06:05:10;29.42;;;12.25;;
26718;SDS011;14326;50.794;6.060;2023-04-06T06:07:56;36.28;;;12.73;;
26718;SDS011;14326;50.794;6.060;2023-04-06T06:10:38;31.05;;;12.30;;
26718;SDS011;14326;50.794;6.060;2023-04-06T06:13:05;32.97;;;12.57;;
26718;SDS011;14326;50.794;6.060;2023-04-06T06:15:44;34.08;;;10.80;;
26718;SDS011;14326;50.794;6.060;2023-04-06T06:18:17;27.48;;;9.50;;
26718;SDS011;14326;50.794;6.060;2023-04-06T06:20:50;21.60;;;7.63;;
26718;SDS011;14326;50.794;6.060;2023-04-06T06:23:19;25.00;;;9.88;;
26718;SDS011;14326;50.794;6.060;2023-04-06T06:25:50;26.35;;;8.77;;
26718;SDS011;14326;50.794;6.060;2023-04-06T06:28:19;24.80;;;9.52;;
26718;SDS011;14326;50.794;6.060;2023-04-06T06:33:55;28.33;;;9.02;;
26718;SDS011;14326;50.794;6.060;2023-04-06T06:36:25;23.77;;;8.60;;
26718;SDS011;14326;50.794;6.060;2023-04-06T06:39:00;24.48;;;8.85;;
26718;SDS011;14326;50.794;6.060;2023-04-06T06:41:28;26.17;;;9.63;;
26718;SDS011;14326;50.794;6.060;2023-04-06T06:43:55;25.08;;;9.68;;
26718;SDS011;14326;50.794;6.060;2023-04-06T06:46:22;28.08;;;9.20;;
26718;SDS011;14326;50.794;6.060;2023-04-06T06:48:48;30.17;;;9.05;;
26718;SDS011;14326;50.794;6.060;2023-04-06T06:51:16;25.92;;;9.52;;
26718;SDS011;14326;50.794;6.060;2023-04-06T06:53:47;27.50;;;10.10;;
26718;SDS011;14326;50.794;6.060;2023-04-06T06:56:22;25.67;;;8.90;;
26718;SDS011;14326;50.794;6.060;2023-04-06T06:58:48;26.13;;;8.82;;
26718;SDS011;14326;50.794;6.060;2023-04-06T07:01:15;25.13;;;9.02;;
26718;SDS011;14326;50.794;6.060;2023-04-06T07:03:42;24.73;;;8.18;;
26718;SDS011;14326;50.794;6.060;2023-04-06T07:06:08;26.42;;;8.57;;
26718;SDS011;14326;50.794;6.060;2023-04-06T07:08:37;25.17;;;9.75;;
26718;SDS011;14326;50.794;6.060;2023-04-06T07:11:04;24.27;;;7.55;;
26718;SDS011;14326;50.794;6.060;2023-04-06T07:13:30;28.08;;;8.38;;
26718;SDS011;14326;50.794;6.060;2023-04-06T07:15:57;25.38;;;9.07;;
26718;SDS011;14326;50.794;6.060;2023-04-06T07:18:24;24.50;;;8.73;;
26718;SDS011;14326;50.794;6.060;2023-04-06T07:20:51;28.73;;;8.93;;
26718;SDS011;14326;50.794;6.060;2023-04-06T07:23:18;26.70;;;9.02;;
26718;SDS011;14326;50.794;6.060;2023-04-06T07:25:46;23.95;;;8.45;;
26718;SDS011;14326;50.794;6.060;2023-04-06T07:28:15;23.63;;;8.05;;
26718;SDS011;14326;50.794;6.060;2023-04-06T07:30:42;29.38;;;9.18;;
26718;SDS011;14326;50.794;6.060;2023-04-06T07:33:20;23.70;;;8.23;;
26718;SDS011;14326;50.794;6.060;2023-04-06T07:36:07;27.67;;;10.15;;
26718;SDS011;14326;50.794;6.060;2023-04-06T07:41:49;26.20;;;8.82;;
26718;SDS011;14326;50.794;6.060;2023-04-06T07:44:16;24.98;;;8.45;;
26718;SDS011;14326;50.794;6.060;2023-04-06T07:46:58;27.88;;;8.85;;
26718;SDS011;14326;50.794;6.060;2023-04-06T07:49:43;23.83;;;9.45;;
26718;SDS011;14326;50.794;6.060;2023-04-06T07:52:20;25.70;;;9.25;;
26718;SDS011;14326;50.794;6.060;2023-04-06T07:54:52;26.67;;;8.80;;
26718;SDS011;14326;50.794;6.060;2023-04-06T07:57:39;25.27;;;8.25;;
26718;SDS011;14326;50.794;6.060;2023-04-06T08:00:15;27.33;;;9.25;;
26718;SDS011;14326;50.794;6.060;2023-04-06T08:02:42;26.40;;;8.38;;
26718;SDS011;14326;50.794;6.060;2023-04-06T08:05:34;22.85;;;7.53;;
26718;SDS011;14326;50.794;6.060;2023-04-06T08:08:12;29.57;;;8.57;;
26718;SDS011;14326;50.794;6.060;2023-04-06T08:10:49;27.25;;;9.10;;
26718;SDS011;14326;50.794;6.060;2023-04-06T08:13:17;26.27;;;9.07;;
26718;SDS011;14326;50.794;6.060;2023-04-06T08:15:44;26.88;;;8.43;;
26718;SDS011;14326;50.794;6.060;2023-04-06T08:18:14;25.15;;;8.15;;
26718;SDS011;14326;50.794;6.060;2023-04-06T08:20:41;30.27;;;9.38;;
26718;SDS011;14326;50.794;6.060;2023-04-06T08:23:10;27.45;;;9.23;;
26718;SDS011;14326;50.794;6.060;2023-04-06T08:25:48;24.13;;;8.93;;
26718;SDS011;14326;50.794;6.060;2023-04-06T08:31:07;26.50;;;9.60;;
26718;SDS011;14326;50.794;6.060;2023-04-06T08:33:39;24.20;;;8.80;;
26718;SDS011;14326;50.794;6.060;2023-04-06T08:36:07;29.55;;;9.40;;
26718;SDS011;14326;50.794;6.060;2023-04-06T08:38:35;23.80;;;8.93;;
26718;SDS011;14326;50.794;6.060;2023-04-06T08:41:06;26.48;;;9.15;;
26718;SDS011;14326;50.794;6.060;2023-04-06T08:43:35;27.30;;;9.43;;
26718;SDS011;14326;50.794;6.060;2023-04-06T08:46:08;24.33;;;9.60;;
26718;SDS011;14326;50.794;6.060;2023-04-06T08:48:36;26.45;;;9.45;;
26718;SDS011;14326;50.794;6.060;2023-04-06T08:51:04;25.67;;;9.07;;
26718;SDS011;14326;50.794;6.060;2023-04-06T08:53:32;26.25;;;8.50;;
26718;SDS011;14326;50.794;6.060;2023-04-06T08:55:58;26.65;;;9.70;;
26718;SDS011;14326;50.794;6.060;2023-04-06T08:58:26;24.90;;;8.63;;
26718;SDS011;14326;50.794;6.060;2023-04-06T09:00:57;26.27;;;7.93;;
26718;SDS011;14326;50.794;6.060;2023-04-06T09:03:26;23.27;;;7.68;;
26718;SDS011;14326;50.794;6.060;2023-04-06T09:05:54;27.20;;;9.45;;
26718;SDS011;14326;50.794;6.060;2023-04-06T09:08:21;27.25;;;9.27;;
26718;SDS011;14326;50.794;6.060;2023-04-06T09:10:50;25.63;;;9.18;;
26718;SDS011;14326;50.794;6.060;2023-04-06T09:13:17;25.10;;;9.43;;
26718;SDS011;14326;50.794;6.060;2023-04-06T09:15:43;27.17;;;9.00;;
26718;SDS011;14326;50.794;6.060;2023-04-06T09:18:12;30.25;;;10.25;;
26718;SDS011;14326;50.794;6.060;2023-04-06T09:20:38;29.48;;;10.05;;
26718;SDS011;14326;50.794;6.060;2023-04-06T09:23:05;26.77;;;9.57;;
26718;SDS011;14326;50.794;6.060;2023-04-06T09:25:32;32.33;;;11.23;;
26718;SDS011;14326;50.794;6.060;2023-04-06T09:27:59;28.27;;;9.25;;
26718;SDS011;14326;50.794;6.060;2023-04-06T09:30:27;28.00;;;10.02;;
26718;SDS011;14326;50.794;6.060;2023-04-06T09:32:55;26.92;;;10.05;;
26718;SDS011;14326;50.794;6.060;2023-04-06T09:35:25;28.55;;;10.60;;
26718;SDS011;14326;50.794;6.060;2023-04-06T09:40:21;29.90;;;11.02;;
26718;SDS011;14326;50.794;6.060;2023-04-06T09:42:49;30.83;;;11.10;;
26718;SDS011;14326;50.794;6.060;2023-04-06T09:45:19;29.38;;;10.05;;
26718;SDS011;14326;50.794;6.060;2023-04-06T09:47:46;28.55;;;10.23;;
26718;SDS011;14326;50.794;6.060;2023-04-06T09:50:14;29.88;;;11.60;;
26718;SDS011;14326;50.794;6.060;2023-04-06T09:52:46;27.55;;;10.25;;
26718;SDS011;14326;50.794;6.060;2023-04-06T09:55:17;28.20;;;10.63;;
26718;SDS011;14326;50.794;6.060;2023-04-06T09:57:50;26.33;;;10.70;;
26718;SDS011;14326;50.794;6.060;2023-04-06T10:00:21;28.60;;;10.57;;
26718;SDS011;14326;50.794;6.060;2023-04-06T10:02:50;26.90;;;9.57;;
26718;SDS011;14326;50.794;6.060;2023-04-06T10:05:22;28.85;;;9.32;;
26718;SDS011;14326;50.794;6.060;2023-04-06T10:07:55;26.55;;;9.88;;
26718;SDS011;14326;50.794;6.060;2023-04-06T10:10:26;24.77;;;9.68;;
26718;SDS011;14326;50.794;6.060;2023-04-06T10:12:54;25.40;;;9.40;;
26718;SDS011;14326;50.794;6.060;2023-04-06T10:15:21;26.52;;;10.30;;
26718;SDS011;14326;50.794;6.060;2023-04-06T10:17:52;25.27;;;9.00;;
26718;SDS011;14326;50.794;6.060;2023-04-06T10:20:23;26.15;;;9.50;;
26718;SDS011;14326;50.794;6.060;2023-04-06T10:23:05;22.70;;;8.40;;
26718;SDS011;14326;50.794;6.060;2023-04-06T10:25:53;24.33;;;8.88;;
26718;SDS011;14326;50.794;6.060;2023-04-06T10:28:36;21.08;;;8.35;;
26718;SDS011;14326;50.794;6.060;2023-04-06T10:31:26;26.20;;;10.02;;
26718;SDS011;14326;50.794;6.060;2023-04-06T10:34:03;25.02;;;9.25;;
26718;SDS011;14326;50.794;6.060;2023-04-06T10:36:54;22.88;;;8.52;;
26718;SDS011;14326;50.794;6.060;2023-04-06T10:39:51;22.80;;;8.25;;
26718;SDS011;14326;50.794;6.060;2023-04-06T10:42:36;20.80;;;7.65;;
26718;SDS011;14326;50.794;6.060;2023-04-06T10:51:07;22.95;;;8.82;;
26718;SDS011;14326;50.794;6.060;2023-04-06T10:53:35;22.42;;;8.50;;
26718;SDS011;14326;50.794;6.060;2023-04-06T10:56:04;24.45;;;8.57;;
26718;SDS011;14326;50.794;6.060;2023-04-06T10:59:05;22.58;;;8.05;;
26718;SDS011;14326;50.794;6.060;2023-04-06T11:01:32;22.38;;;8.13;;
26718;SDS011;14326;50.794;6.060;2023-04-06T11:04:00;21.58;;;7.88;;
26718;SDS011;14326;50.794;6.060;2023-04-06T11:06:41;23.45;;;8.93;;
26718;SDS011;14326;50.794;6.060;2023-04-06T11:09:22;22.25;;;8.07;;
26718;SDS011;14326;50.794;6.060;2023-04-06T11:11:51;22.67;;;8.25;;
26718;SDS011;14326;50.794;6.060;2023-04-06T11:14:19;22.13;;;7.88;;
26718;SDS011;14326;50.794;6.060;2023-04-06T11:16:48;23.77;;;8.05;;
26718;SDS011;14326;50.794;6.060;2023-04-06T11:19:17;22.58;;;8.20;;
26718;SDS011;14326;50.794;6.060;2023-04-06T11:21:47;23.67;;;8.15;;
26718;SDS011;14326;50.794;6.060;2023-04-06T11:24:15;23.77;;;8.20;;
26718;SDS011;14326;50.794;6.060;2023-04-06T11:26:47;22.00;;;8.43;;
26718;SDS011;14326;50.794;6.060;2023-04-06T11:31:47;24.20;;;8.35;;
26718;SDS011;14326;50.794;6.060;2023-04-06T11:34:16;22.50;;;8.98;;
26718;SDS011;14326;50.794;6.060;2023-04-06T11:36:46;24.45;;;9.07;;
26718;SDS011;14326;50.794;6.060;2023-04-06T11:39:22;25.25;;;8.77;;
26718;SDS011;14326;50.794;6.060;2023-04-06T11:41:50;24.70;;;10.02;;
26718;SDS011;14326;50.794;6.060;2023-04-06T11:44:31;24.90;;;9.68;;
26718;SDS011;14326;50.794;6.060;2023-04-06T11:47:14;22.08;;;8.75;;
26718;SDS011;14326;50.794;6.060;2023-04-06T11:49:49;26.45;;;10.00;;
26718;SDS011;14326;50.794;6.060;2023-04-06T11:52:40;25.50;;;9.27;;
26718;SDS011;14326;50.794;6.060;2023-04-06T11:55:11;21.73;;;8.90;;
26718;SDS011;14326;50.794;6.060;2023-04-06T11:57:42;23.73;;;9.48;;
26718;SDS011;14326;50.794;6.060;2023-04-06T12:00:12;23.35;;;9.05;;
26718;SDS011;14326;50.794;6.060;2023-04-06T12:02:45;19.02;;;7.07;;
26718;SDS011;14326;50.794;6.060;2023-04-06T12:05:12;25.00;;;10.05;;
26718;SDS011;14326;50.794;6.060;2023-04-06T12:07:54;25.35;;;9.38;;
26718;SDS011;14326;50.794;6.060;2023-04-06T12:10:21;26.13;;;9.73;;
26718;SDS011;14326;50.794;6.060;2023-04-06T12:12:56;25.77;;;9.68;;
26718;SDS011;14326;50.794;6.060;2023-04-06T12:15:24;25.13;;;9.00;;
26718;SDS011;14326;50.794;6.060;2023-04-06T12:18:07;22.13;;;9.13;;
26718;SDS011;14326;50.794;6.060;2023-04-06T12:20:45;24.95;;;9.68;;
26718;SDS011;14326;50.794;6.060;2023-04-06T12:23:14;23.48;;;9.48;;
26718;SDS011;14326;50.794;6.060;2023-04-06T12:25:41;18.63;;;7.97;;
26718;SDS011;14326;50.794;6.060;2023-04-06T12:28:15;22.20;;;8.13;;
26718;SDS011;14326;50.794;6.060;2023-04-06T12:30:46;21.77;;;8.25;;
26718;SDS011;14326;50.794;6.060;2023-04-06T12:33:25;22.52;;;8.35;;
26718;SDS011;14326;50.794;6.060;2023-04-06T12:36:12;24.17;;;9.32;;
26718;SDS011;14326;50.794;6.060;2023-04-06T12:39:07;21.98;;;8.10;;
26718;SDS011;14326;50.794;6.060;2023-04-06T12:41:54;21.52;;;6.70;;
26718;SDS011;14326;50.794;6.060;2023-04-06T12:44:22;20.92;;;7.82;;
26718;SDS011;14326;50.794;6.060;2023-04-06T12:46:50;22.67;;;7.45;;
26718;SDS011;14326;50.794;6.060;2023-04-06T12:49:17;21.00;;;7.97;;
26718;SDS011;14326;50.794;6.060;2023-04-06T12:51:44;20.15;;;6.55;;
26718;SDS011;14326;50.794;6.060;2023-04-06T12:54:19;20.77;;;7.55;;
26718;SDS011;14326;50.794;6.060;2023-04-06T12:57:09;20.23;;;6.40;;
26718;SDS011;14326;50.794;6.060;2023-04-06T12:59:50;19.53;;;6.30;;
26718;SDS011;14326;50.794;6.060;2023-04-06T13:02:23;22.77;;;7.25;;
26718;SDS011;14326;50.794;6.060;2023-04-06T13:04:56;21.02;;;7.32;;
26718;SDS011;14326;50.794;6.060;2023-04-06T13:07:26;20.23;;;7.03;;
26718;SDS011;14326;50.794;6.060;2023-04-06T13:09:53;18.75;;;7.18;;
26718;SDS011;14326;50.794;6.060;2023-04-06T13:12:22;19.08;;;6.90;;
26718;SDS011;14326;50.794;6.060;2023-04-06T13:15:09;20.48;;;7.30;;
26718;SDS011;14326;50.794;6.060;2023-04-06T13:17:49;20.95;;;6.63;;
26718;SDS011;14326;50.794;6.060;2023-04-06T13:20:31;18.35;;;7.05;;
26718;SDS011;14326;50.794;6.060;2023-04-06T13:23:03;20.30;;;6.35;;
26718;SDS011;14326;50.794;6.060;2023-04-06T13:25:43;18.80;;;6.85;;
26718;SDS011;14326;50.794;6.060;2023-04-06T13:28:22;18.88;;;6.13;;
26718;SDS011;14326;50.794;6.060;2023-04-06T13:30:52;17.92;;;6.85;;
26718;SDS011;14326;50.794;6.060;2023-04-06T13:33:22;19.60;;;6.68;;
26718;SDS011;14326;50.794;6.060;2023-04-06T13:35:52;18.77;;;6.50;;
26718;SDS011;14326;50.794;6.060;2023-04-06T13:38:19;17.33;;;6.15;;
26718;SDS011;14326;50.794;6.060;2023-04-06T13:40:45;20.23;;;6.95;;
26718;SDS011;14326;50.794;6.060;2023-04-06T13:43:18;18.83;;;6.88;;
26718;SDS011;14326;50.794;6.060;2023-04-06T13:49:01;17.73;;;5.53;;
26718;SDS011;14326;50.794;6.060;2023-04-06T13:51:31;17.90;;;6.40;;
26718;SDS011;14326;50.794;6.060;2023-04-06T13:54:06;18.67;;;6.55;;
26718;SDS011;14326;50.794;6.060;2023-04-06T13:56:43;17.10;;;6.07;;
26718;SDS011;14326;50.794;6.060;2023-04-06T13:59:15;22.02;;;6.68;;
26718;SDS011;14326;50.794;6.060;2023-04-06T14:01:49;17.90;;;6.40;;
26718;SDS011;14326;50.794;6.060;2023-04-06T14:04:18;18.70;;;6.43;;
26718;SDS011;14326;50.794;6.060;2023-04-06T14:06:55;20.35;;;5.88;;
26718;SDS011;14326;50.794;6.060;2023-04-06T14:09:23;18.13;;;6.68;;
26718;SDS011;14326;50.794;6.060;2023-04-06T14:11:58;17.00;;;5.97;;
26718;SDS011;14326;50.794;6.060;2023-04-06T14:17:20;15.65;;;5.32;;
26718;SDS011;14326;50.794;6.060;2023-04-06T14:19:48;17.05;;;5.57;;
26718;SDS011;14326;50.794;6.060;2023-04-06T14:22:17;17.48;;;5.63;;
26718;SDS011;14326;50.794;6.060;2023-04-06T14:25:05;17.73;;;5.22;;
26718;SDS011;14326;50.794;6.060;2023-04-06T14:27:54;18.20;;;6.03;;
26718;SDS011;14326;50.794;6.060;2023-04-06T14:30:29;16.60;;;5.55;;
26718;SDS011;14326;50.794;6.060;2023-04-06T14:32:56;13.52;;;4.68;;
26718;SDS011;14326;50.794;6.060;2023-04-06T14:35:31;16.65;;;5.18;;
26718;SDS011;14326;50.794;6.060;2023-04-06T14:38:07;17.25;;;5.20;;
26718;SDS011;14326;50.794;6.060;2023-04-06T14:40:34;15.60;;;5.10;;
26718;SDS011;14326;50.794;6.060;2023-04-06T14:43:07;16.00;;;5.30;;
26718;SDS011;14326;50.794;6.060;2023-04-06T14:45:46;14.77;;;4.68;;
26718;SDS011;14326;50.794;6.060;2023-04-06T14:48:30;16.05;;;4.82;;
26718;SDS011;14326;50.794;6.060;2023-04-06T14:51:09;17.00;;;5.47;;
26718;SDS011;14326;50.794;6.060;2023-04-06T14:53:46;14.90;;;4.47;;
26718;SDS011;14326;50.794;6.060;2023-04-06T14:56:30;13.88;;;4.32;;
26718;SDS011;14326;50.794;6.060;2023-04-06T14:59:13;14.30;;;4.60;;
26718;SDS011;14326;50.794;6.060;2023-04-06T15:01:58;12.35;;;3.80;;
26718;SDS011;14326;50.794;6.060;2023-04-06T15:04:28;12.02;;;3.80;;
26718;SDS011;14326;50.794;6.060;2023-04-06T15:07:03;11.65;;;4.20;;
26718;SDS011;14326;50.794;6.060;2023-04-06T15:09:38;10.23;;;3.42;;
26718;SDS011;14326;50.794;6.060;2023-04-06T15:12:23;13.65;;;3.92;;
26718;SDS011;14326;50.794;6.060;2023-04-06T15:15:16;11.55;;;4.10;;
26718;SDS011;14326;50.794;6.060;2023-04-06T15:17:58;13.48;;;4.18;;
26718;SDS011;14326;50.794;6.060;2023-04-06T15:23:35;10.90;;;3.50;;
26718;SDS011;14326;50.794;6.060;2023-04-06T15:26:31;11.98;;;3.47;;
26718;SDS011;14326;50.794;6.060;2023-04-06T15:29:08;9.95;;;3.45;;
26718;SDS011;14326;50.794;6.060;2023-04-06T15:31:57;10.35;;;3.30;;
26718;SDS011;14326;50.794;6.060;2023-04-06T15:34:31;10.82;;;3.45;;
26718;SDS011;14326;50.794;6.060;2023-04-06T15:37:07;13.10;;;4.00;;
26718;SDS011;14326;50.794;6.060;2023-04-06T15:39:40;11.48;;;3.63;;
26718;SDS011;14326;50.794;6.060;2023-04-06T15:42:18;10.02;;;3.22;;
26718;SDS011;14326;50.794;6.060;2023-04-06T15:48:23;11.43;;;3.92;;
26718;SDS011;14326;50.794;6.060;2023-04-06T15:50:58;10.70;;;3.42;;
26718;SDS011;14326;50.794;6.060;2023-04-06T15:56:43;11.68;;;3.33;;
26718;SDS011;14326;50.794;6.060;2023-04-06T15:59:23;11.35;;;3.53;;
26718;SDS011;14326;50.794;6.060;2023-04-06T16:01:58;11.10;;;3.17;;
26718;SDS011;14326;50.794;6.060;2023-04-06T16:04:32;12.27;;;3.58;;
26718;SDS011;14326;50.794;6.060;2023-04-06T16:07:25;12.15;;;3.42;;
26718;SDS011;14326;50.794;6.060;2023-04-06T16:10:14;12.10;;;3.78;;
26718;SDS011;14326;50.794;6.060;2023-04-06T16:12:49;11.48;;;3.53;;
26718;SDS011;14326;50.794;6.060;2023-04-06T16:15:15;11.15;;;3.58;;
26718;SDS011;14326;50.794;6.060;2023-04-06T16:17:53;11.07;;;3.53;;
26718;SDS011;14326;50.794;6.060;2023-04-06T16:23:24;12.50;;;4.25;;
26718;SDS011;14326;50.794;6.060;2023-04-06T16:25:57;12.30;;;4.13;;
26718;SDS011;14326;50.794;6.060;2023-04-06T16:31:49;14.68;;;3.65;;
26718;SDS011;14326;50.794;6.060;2023-04-06T16:34:36;11.23;;;3.38;;
26718;SDS011;14326;50.794;6.060;2023-04-06T16:37:13;11.60;;;3.58;;
26718;SDS011;14326;50.794;6.060;2023-04-06T16:40:05;11.52;;;3.63;;